• Join FlightAware (Why Join?)
  • Login
  • US Flag 
Gobble Gobble! 
07:02AM EST


 

Airport Tracker/Info


-or-


 

Live Flight TrackerFlight Track Log ✈ EGF2564 ✈ 11-Jun-2013 ✈ KDFW - KSHV

Flight Track Log - Related Links

Times and Time Zones

All times are in EDT time to prevent confusion due to time zone crossing. See the EGF2564 flight status page for this flight to view local times or setup timezone preferences in your user account.

Time Position Orientation Groundspeed Altitude Reporting Facility
EDT Latitude Longitude Course Direction KTS MPH feet Rate Location/Type
10:50PM 32.8633 -96.7758 99° East  Level Estimated
10:51PM 32.8520 -96.6885 99° East  Level Estimated
10:52PM 32.8407 -96.6011 99° East  Level Estimated
10:53PM 32.8293 -96.5138 99° East  Level Estimated
10:54PM 32.8178 -96.4265 99° East  Level Estimated
10:55PM 32.8063 -96.3393 99° East  Level Estimated
10:56PM 32.7947 -96.2520 99° East  Level Estimated
10:57PM 32.7830 -96.1648 99° East  Level Estimated
10:58PM 32.7713 -96.0776 99° East  Level Estimated
10:59PM 32.7595 -95.9904 99° East  Level Estimated
11:00PM 32.7477 -95.9033 99° East  Level Estimated
11:01PM 32.7357 -95.8162 99° East  Level Estimated
11:02PM 32.7238 -95.7291 99° East  Level Estimated
11:03PM 32.7118 -95.6420 99° East  Level Estimated
11:04PM 32.6997 -95.5549 99° East  Level Estimated
11:05PM 32.6875 -95.4679 99° East  Level Estimated
11:06PM 32.6754 -95.3809 99° East  Level Estimated
11:07PM 32.6631 -95.2939 99° East  Level Estimated
11:08PM 32.6508 -95.2069 100° East  Level Estimated
11:09PM 32.6384 -95.1200 100° East  Level Estimated
11:10PM 32.6259 -95.0331 100° East  Level Estimated
11:11PM 32.6134 -94.9462 100° East  Level Estimated
11:12PM 32.6009 -94.8593 100° East  Level Estimated
11:13PM 32.5883 -94.7725 100° East  Level Estimated
11:14PM 32.5756 -94.6857 100° East  Level Estimated
11:15PM 32.5629 -94.5989 100° East  Level Estimated
11:16PM 32.5501 -94.5121 100° East  Level Estimated
11:17PM 32.5372 -94.4254 100° East  Level Estimated
11:18PM 32.5243 -94.3387 100° East  Level Estimated
11:19PM 32.5113 -94.2520 100° East  Level Estimated